Time;durP1;ratioP1;P1;durP2;ratioP2;P2;SDS_P1;SDS_P2;PMS_P1;PMS_P2;Temp;Humidity;BMP_temperature;BMP_pressure;BME280_temperature;BME280_humidity;BME280_pressure;Samples;Min_cycle;Max_cycle;Signal;HPM_P1;HPM_P2
2022/01/18 00:00:40;;;;;;;123.72;44.22;;;;;;;;;;4977589;28;20050;-56
2022/01/18 00:03:06;;;;;;;119.97;44.63;;;;;;;;;;4981359;28;20511;-56
2022/01/18 00:05:32;;;;;;;86.15;33.58;;;;;;;;;;4979990;28;20568;-56
2022/01/18 00:07:58;;;;;;;127.45;40.97;;;;;;;;;;4978595;28;20425;-54
2022/01/18 00:10:27;;;;;;;109.40;43.15;;;;;;;;;;4989900;28;20053;-55
2022/01/18 00:13:09;;;;;;;130.82;41.53;;;;;;;;;;5000409;28;20033;-55
2022/01/18 00:23:15;;;;;;;124.22;41.20;;;;;;;;;;5004073;28;20032;-54
2022/01/18 00:25:44;;;;;;;131.73;43.40;;;;;;;;;;5002701;28;20038;-56
2022/01/18 00:28:10;;;;;;;144.77;44.88;;;;;;;;;;5003521;28;20025;-56
2022/01/18 00:31:05;;;;;;;107.38;42.03;;;;;;;;;;5002868;28;20037;-56
2022/01/18 00:33:36;;;;;;;113.15;40.00;;;;;;;;;;5003381;28;20103;-56
2022/01/18 00:36:03;;;;;;;115.40;37.88;;;;;;;;;;5004269;28;20041;-56
2022/01/18 00:38:32;;;;;;;102.75;31.80;;;;;;;;;;5005256;28;20339;-56
2022/01/18 00:40:58;;;;;;;86.07;33.60;;;;;;;;;;5005399;28;20034;-55
2022/01/18 00:43:24;;;;;;;98.65;31.33;;;;;;;;;;5003411;28;20088;-56
2022/01/18 00:45:49;;;;;;;105.45;31.70;;;;;;;;;;5005515;28;20491;-56
2022/01/18 00:48:17;;;;;;;87.57;31.70;;;;;;;;;;5002899;28;20053;-56
2022/01/18 00:50:44;;;;;;;97.45;31.15;;;;;;;;;;5002777;28;20421;-56
2022/01/18 00:53:13;;;;;;;81.25;29.55;;;;;;;;;;5003082;28;20050;-56
2022/01/18 00:55:49;;;;;;;83.40;27.27;;;;;;;;;;5002833;28;20482;-54
2022/01/18 00:58:15;;;;;;;70.53;26.70;;;;;;;;;;5002948;28;20392;-55
2022/01/18 01:00:41;;;;;;;65.20;25.05;;;;;;;;;;5002214;28;20054;-56
2022/01/18 01:03:07;;;;;;;82.32;26.02;;;;;;;;;;5005500;28;20026;-55
2022/01/18 01:05:34;;;;;;;62.45;22.80;;;;;;;;;;5003242;28;20030;-55
2022/01/18 01:08:00;;;;;;;75.05;24.73;;;;;;;;;;5002592;28;20026;-55
2022/01/18 01:10:25;;;;;;;72.47;23.88;;;;;;;;;;5003222;28;20058;-56
2022/01/18 01:12:51;;;;;;;64.25;22.98;;;;;;;;;;5002929;28;20053;-56
2022/01/18 01:15:19;;;;;;;69.35;23.90;;;;;;;;;;4993159;28;20041;-56
2022/01/18 01:44:22;;;;;;;56.78;19.27;;;;;;;;;;4997937;28;20137;-56
2022/01/18 01:46:48;;;;;;;61.72;18.98;;;;;;;;;;4982355;28;20109;-56
2022/01/18 01:49:15;;;;;;;57.05;20.40;;;;;;;;;;5000609;28;20144;-56
2022/01/18 01:51:44;;;;;;;47.78;21.27;;;;;;;;;;4999967;28;20036;-56
2022/01/18 01:54:11;;;;;;;53.00;19.25;;;;;;;;;;5002828;28;20053;-56
2022/01/18 01:56:37;;;;;;;60.38;17.52;;;;;;;;;;5001866;28;20030;-59
2022/01/18 01:59:04;;;;;;;60.35;19.80;;;;;;;;;;5003036;28;20416;-56
2022/01/18 02:01:37;;;;;;;60.70;19.88;;;;;;;;;;5000514;28;20036;-54
2022/01/18 02:04:03;;;;;;;58.05;21.20;;;;;;;;;;5002205;28;20408;-56
2022/01/18 02:06:28;;;;;;;56.42;21.17;;;;;;;;;;5000248;28;20030;-55
2022/01/18 02:08:54;;;;;;;55.28;20.00;;;;;;;;;;5003872;28;20037;-55
2022/01/18 02:11:19;;;;;;;55.95;18.20;;;;;;;;;;4998661;28;20037;-55
2022/01/18 02:13:48;;;;;;;48.75;18.67;;;;;;;;;;4998287;28;20571;-56
2022/01/18 02:21:45;;;;;;;74.45;20.52;;;;;;;;;;5001033;28;20018;-57
2022/01/18 02:21:46;;;;;;;51.15;18.35;;;;;;;;;;4996182;28;20405;-57
2022/01/18 02:24:12;;;;;;;61.33;17.80;;;;;;;;;;4999393;28;20302;-56
2022/01/18 02:26:38;;;;;;;64.78;19.52;;;;;;;;;;5001812;28;20679;-55
2022/01/18 02:29:08;;;;;;;50.95;18.75;;;;;;;;;;4980909;28;20034;-56
2022/01/18 02:31:34;;;;;;;46.13;19.70;;;;;;;;;;5005060;28;20040;-57
2022/01/18 02:34:11;;;;;;;56.80;19.42;;;;;;;;;;5002136;28;20026;-56
2022/01/18 02:36:37;;;;;;;54.05;21.73;;;;;;;;;;5001945;28;20026;-56
2022/01/18 02:39:05;;;;;;;55.10;19.45;;;;;;;;;;4998238;28;20034;-57
2022/01/18 02:41:32;;;;;;;58.80;23.17;;;;;;;;;;5002205;28;20025;-55
2022/01/18 02:43:59;;;;;;;58.65;22.20;;;;;;;;;;5002455;28;20050;-56
2022/01/18 02:46:27;;;;;;;62.33;21.90;;;;;;;;;;5000616;28;20220;-56
2022/01/18 02:48:53;;;;;;;72.40;22.90;;;;;;;;;;5000438;28;20029;-55
2022/01/18 02:51:19;;;;;;;62.30;18.88;;;;;;;;;;4996502;28;20117;-56
2022/01/18 02:54:12;;;;;;;80.32;18.88;;;;;;;;;;4985693;28;20037;-55
2022/01/18 02:56:49;;;;;;;59.92;18.38;;;;;;;;;;4998150;28;20061;-55
2022/01/18 02:59:23;;;;;;;46.88;17.63;;;;;;;;;;5000571;28;20033;-56
2022/01/18 03:04:41;;;;;;;42.42;15.73;;;;;;;;;;5002010;28;20034;-56
2022/01/18 03:07:08;;;;;;;47.50;15.48;;;;;;;;;;4998582;28;20144;-54
2022/01/18 03:09:33;;;;;;;50.13;15.70;;;;;;;;;;4999297;28;20117;-56
2022/01/18 03:11:59;;;;;;;51.42;14.27;;;;;;;;;;5002907;28;20033;-56
2022/01/18 03:14:25;;;;;;;45.08;15.32;;;;;;;;;;5001813;28;20042;-56
2022/01/18 03:16:50;;;;;;;47.65;13.75;;;;;;;;;;4983290;28;20034;-56
2022/01/18 03:19:16;;;;;;;47.55;14.50;;;;;;;;;;5000425;28;20053;-56
2022/01/18 03:21:42;;;;;;;43.60;13.55;;;;;;;;;;4998160;28;20105;-56
2022/01/18 03:29:40;;;;;;;49.75;14.80;;;;;;;;;;5000434;28;20056;-55
2022/01/18 03:32:07;;;;;;;43.22;15.50;;;;;;;;;;4997765;28;20509;-56
2022/01/18 03:34:33;;;;;;;42.33;13.35;;;;;;;;;;4995303;28;20518;-56
2022/01/18 03:36:58;;;;;;;51.67;15.27;;;;;;;;;;4999585;28;20120;-56
2022/01/18 03:39:24;;;;;;;44.65;13.45;;;;;;;;;;4999059;28;21564;-56
2022/01/18 03:41:54;;;;;;;44.92;12.57;;;;;;;;;;4996697;28;20141;-55
2022/01/18 03:44:22;;;;;;;50.50;14.15;;;;;;;;;;4998811;28;20038;-56
2022/01/18 03:46:50;;;;;;;40.85;13.98;;;;;;;;;;4985884;28;20124;-56
2022/01/18 03:49:15;;;;;;;61.45;13.35;;;;;;;;;;4998293;28;20030;-56
2022/01/18 03:51:41;;;;;;;47.97;16.05;;;;;;;;;;5001509;28;20034;-56
2022/01/18 03:54:06;;;;;;;33.50;13.52;;;;;;;;;;4999871;28;20033;-56
2022/01/18 03:56:32;;;;;;;54.97;13.65;;;;;;;;;;5002311;28;20044;-56
2022/01/18 03:58:57;;;;;;;59.65;15.30;;;;;;;;;;5002253;28;20060;-56
2022/01/18 04:01:23;;;;;;;44.78;13.27;;;;;;;;;;4988031;28;20034;-56
2022/01/18 04:03:48;;;;;;;44.20;14.05;;;;;;;;;;5004512;28;20113;-56
2022/01/18 04:06:14;;;;;;;57.10;14.52;;;;;;;;;;5005570;28;20430;-55
2022/01/18 04:08:40;;;;;;;50.72;12.32;;;;;;;;;;5002191;28;20374;-55
2022/01/18 04:11:05;;;;;;;36.85;13.02;;;;;;;;;;5002334;28;20057;-56
2022/01/18 04:13:31;;;;;;;43.92;12.60;;;;;;;;;;5004706;28;20400;-56
2022/01/18 04:15:56;;;;;;;61.03;13.52;;;;;;;;;;5004007;28;20034;-56
2022/01/18 04:18:47;;;;;;;46.78;13.02;;;;;;;;;;5006431;28;20033;-56
2022/01/18 04:29:11;;;;;;;37.28;10.70;;;;;;;;;;5001462;28;20086;-55
2022/01/18 04:31:37;;;;;;;47.40;11.43;;;;;;;;;;5006646;28;20376;-56
2022/01/18 04:34:03;;;;;;;40.13;12.52;;;;;;;;;;5005143;28;20125;-55
2022/01/18 04:36:28;;;;;;;54.80;12.80;;;;;;;;;;5002896;28;20176;-56
2022/01/18 04:38:54;;;;;;;50.17;12.80;;;;;;;;;;5004183;28;20038;-56
2022/01/18 04:41:26;;;;;;;57.08;13.30;;;;;;;;;;5004647;28;20045;-56
2022/01/18 04:49:11;;;;;;;44.88;11.50;;;;;;;;;;5002714;28;20113;-55
2022/01/18 04:51:37;;;;;;;40.90;12.18;;;;;;;;;;5004569;28;20043;-56
2022/01/18 04:54:07;;;;;;;32.70;11.48;;;;;;;;;;5001977;28;20042;-56
2022/01/18 04:59:05;;;;;;;42.83;12.63;;;;;;;;;;5005128;28;20122;-56
2022/01/18 05:01:31;;;;;;;41.78;12.40;;;;;;;;;;4983022;28;20038;-57
2022/01/18 05:03:57;;;;;;;42.20;12.52;;;;;;;;;;5001309;28;20511;-56
2022/01/18 05:06:22;;;;;;;36.05;10.82;;;;;;;;;;4999968;28;20464;-56
2022/01/18 05:08:48;;;;;;;51.60;12.77;;;;;;;;;;4982262;28;20095;-56
2022/01/18 05:11:16;;;;;;;48.20;12.88;;;;;;;;;;5002215;28;20706;-56
2022/01/18 05:14:05;;;;;;;43.65;12.52;;;;;;;;;;5003235;28;20040;-56
2022/01/18 05:22:58;;;;;;;35.45;11.50;;;;;;;;;;5001484;28;20160;-56
2022/01/18 05:24:38;;;;;;;44.78;11.30;;;;;;;;;;5002731;28;20048;-56
2022/01/18 05:27:04;;;;;;;38.45;11.57;;;;;;;;;;5002211;28;20033;-55
2022/01/18 05:29:29;;;;;;;37.22;11.25;;;;;;;;;;5002610;28;20030;-56
2022/01/18 05:31:55;;;;;;;35.63;12.35;;;;;;;;;;5002741;28;20141;-56
2022/01/18 05:34:21;;;;;;;42.65;12.85;;;;;;;;;;5003823;28;20077;-55
2022/01/18 05:36:47;;;;;;;41.05;12.38;;;;;;;;;;5000941;28;20033;-56
2022/01/18 05:39:13;;;;;;;56.10;13.93;;;;;;;;;;5000494;28;20091;-56
2022/01/18 05:41:40;;;;;;;52.83;13.88;;;;;;;;;;5000577;28;20057;-55
2022/01/18 05:44:07;;;;;;;51.05;12.90;;;;;;;;;;4982375;28;20128;-56
2022/01/18 05:46:32;;;;;;;36.42;11.95;;;;;;;;;;5000460;28;20116;-57
2022/01/18 05:49:01;;;;;;;56.67;13.57;;;;;;;;;;4983709;28;20128;-56
2022/01/18 05:51:27;;;;;;;43.25;14.13;;;;;;;;;;5000971;28;20033;-55
2022/01/18 05:53:53;;;;;;;59.28;14.45;;;;;;;;;;4998633;28;20041;-56
2022/01/18 05:56:19;;;;;;;52.92;15.27;;;;;;;;;;4998088;28;20034;-56
2022/01/18 05:58:45;;;;;;;57.03;14.27;;;;;;;;;;5004221;28;20335;-56
2022/01/18 06:01:13;;;;;;;52.00;14.15;;;;;;;;;;5005087;28;20055;-56
2022/01/18 06:09:07;;;;;;;63.58;14.80;;;;;;;;;;5001024;28;20176;-56
2022/01/18 06:11:33;;;;;;;52.28;14.82;;;;;;;;;;5003579;28;20120;-56
2022/01/18 06:13:59;;;;;;;64.28;14.77;;;;;;;;;;5002181;28;20468;-57
2022/01/18 06:16:26;;;;;;;59.15;14.55;;;;;;;;;;5002162;28;20018;-57
2022/01/18 06:18:53;;;;;;;43.78;15.15;;;;;;;;;;4996884;28;20033;-57
2022/01/18 06:21:19;;;;;;;55.70;15.30;;;;;;;;;;5001618;28;20030;-57
2022/01/18 06:23:44;;;;;;;48.65;14.65;;;;;;;;;;5001345;28;20045;-56
2022/01/18 06:26:15;;;;;;;45.67;12.75;;;;;;;;;;5001556;28;20029;-57
2022/01/18 06:28:41;;;;;;;53.70;13.60;;;;;;;;;;5001615;28;20026;-57
2022/01/18 06:31:07;;;;;;;47.50;12.85;;;;;;;;;;5003387;28;20037;-57
2022/01/18 06:33:32;;;;;;;48.50;15.18;;;;;;;;;;4998443;28;20518;-57
2022/01/18 06:35:58;;;;;;;57.80;14.32;;;;;;;;;;5003299;28;20037;-57
2022/01/18 06:38:23;;;;;;;51.92;14.73;;;;;;;;;;5002683;28;20064;-57
2022/01/18 06:40:49;;;;;;;50.50;16.88;;;;;;;;;;5001183;28;20113;-57
2022/01/18 06:43:15;;;;;;;59.13;17.15;;;;;;;;;;5003667;28;20037;-57
2022/01/18 06:45:41;;;;;;;61.60;18.58;;;;;;;;;;5001794;28;20045;-57
2022/01/18 06:48:07;;;;;;;59.10;17.15;;;;;;;;;;5000848;28;20062;-57
2022/01/18 06:50:34;;;;;;;49.13;16.10;;;;;;;;;;4997231;28;20447;-57
2022/01/18 06:53:00;;;;;;;66.97;16.77;;;;;;;;;;5000463;28;20520;-56
2022/01/18 06:55:26;;;;;;;51.50;16.85;;;;;;;;;;4986742;28;20076;-56
2022/01/18 06:57:51;;;;;;;50.53;16.60;;;;;;;;;;4999836;28;20037;-57
2022/01/18 07:00:17;;;;;;;61.70;16.80;;;;;;;;;;5001801;28;20507;-56
2022/01/18 07:02:43;;;;;;;46.58;15.48;;;;;;;;;;5000361;28;20028;-57
2022/01/18 07:05:08;;;;;;;71.70;16.52;;;;;;;;;;5000760;28;20585;-56
2022/01/18 07:07:34;;;;;;;60.97;17.17;;;;;;;;;;5001182;28;20480;-57
2022/01/18 07:10:00;;;;;;;80.43;17.85;;;;;;;;;;4995406;28;20045;-55
2022/01/18 07:12:28;;;;;;;79.57;18.20;;;;;;;;;;5000938;28;20034;-56
2022/01/18 07:14:53;;;;;;;54.45;16.02;;;;;;;;;;4996889;28;20061;-56
2022/01/18 07:17:19;;;;;;;54.33;17.10;;;;;;;;;;4999804;28;20409;-56
2022/01/18 07:19:45;;;;;;;76.68;16.63;;;;;;;;;;4999255;28;20083;-56
2022/01/18 07:22:10;;;;;;;56.25;17.15;;;;;;;;;;4996753;28;20038;-56
2022/01/18 07:24:44;;;;;;;54.70;17.25;;;;;;;;;;5000054;28;20046;-56
2022/01/18 07:27:13;;;;;;;60.17;17.00;;;;;;;;;;5003040;28;20480;-56
2022/01/18 07:29:41;;;;;;;55.42;15.57;;;;;;;;;;4997096;28;20037;-56
2022/01/18 07:32:07;;;;;;;49.35;16.38;;;;;;;;;;5000670;28;20065;-55
2022/01/18 07:34:38;;;;;;;38.78;14.07;;;;;;;;;;5000656;28;20115;-56
2022/01/18 07:37:04;;;;;;;64.50;17.83;;;;;;;;;;5002560;28;20030;-55
2022/01/18 07:39:29;;;;;;;42.67;15.80;;;;;;;;;;5003899;28;20018;-56
2022/01/18 07:41:55;;;;;;;52.65;14.93;;;;;;;;;;5002094;28;21823;-56
2022/01/18 07:44:20;;;;;;;74.55;16.85;;;;;;;;;;5005994;28;20085;-56
2022/01/18 07:46:46;;;;;;;72.80;17.40;;;;;;;;;;5001631;28;20030;-57
2022/01/18 07:49:12;;;;;;;52.20;17.80;;;;;;;;;;5001005;28;20050;-56
2022/01/18 07:51:37;;;;;;;56.65;18.15;;;;;;;;;;5003001;28;20051;-57
2022/01/18 07:54:03;;;;;;;58.85;17.50;;;;;;;;;;5003287;28;20073;-56
2022/01/18 07:56:28;;;;;;;66.25;19.70;;;;;;;;;;5003248;28;20125;-55
2022/01/18 07:58:54;;;;;;;60.30;16.55;;;;;;;;;;4999109;28;20069;-56
2022/01/18 08:01:20;;;;;;;58.22;17.45;;;;;;;;;;5005815;28;20555;-57
2022/01/18 08:03:45;;;;;;;55.95;19.15;;;;;;;;;;5003753;28;20793;-57
2022/01/18 08:06:11;;;;;;;68.07;18.55;;;;;;;;;;4987777;28;20048;-57
2022/01/18 08:08:39;;;;;;;53.55;16.75;;;;;;;;;;4998323;28;20053;-56
2022/01/18 08:11:06;;;;;;;62.65;17.33;;;;;;;;;;5001809;28;20176;-56
2022/01/18 08:13:38;;;;;;;53.28;15.90;;;;;;;;;;5004960;28;20026;-56
2022/01/18 08:16:47;;;;;;;57.05;15.45;;;;;;;;;;4984110;28;20045;-57
2022/01/18 08:18:57;;;;;;;;;;;;;;;;;;4997337;28;20050;-56
2022/01/18 08:21:24;;;;;;;45.03;14.25;;;;;;;;;;5001676;28;20392;-56
2022/01/18 08:23:50;;;;;;;100.43;25.95;;;;;;;;;;5000890;28;20033;-53
2022/01/18 08:26:16;;;;;;;62.10;20.42;;;;;;;;;;5004134;28;20021;-53
2022/01/18 08:28:42;;;;;;;67.85;19.75;;;;;;;;;;5005076;28;20571;-54
2022/01/18 08:31:07;;;;;;;71.00;17.42;;;;;;;;;;5005374;28;20033;-52
2022/01/18 08:33:33;;;;;;;68.85;18.50;;;;;;;;;;4985610;28;20378;-52
2022/01/18 08:36:04;;;;;;;71.30;18.85;;;;;;;;;;5004460;28;20160;-53
2022/01/18 08:38:30;;;;;;;57.58;18.30;;;;;;;;;;5005733;28;20758;-52
2022/01/18 08:40:56;;;;;;;89.00;19.50;;;;;;;;;;5005369;28;20740;-52
2022/01/18 08:43:22;;;;;;;68.65;20.58;;;;;;;;;;5004697;28;20203;-54
2022/01/18 08:45:48;;;;;;;77.07;18.95;;;;;;;;;;5006896;28;20037;-52
2022/01/18 08:48:14;;;;;;;70.40;20.70;;;;;;;;;;4992172;28;20405;-53
2022/01/18 08:50:40;;;;;;;94.60;23.15;;;;;;;;;;4999055;28;20042;-54
2022/01/18 08:53:06;;;;;;;89.70;21.95;;;;;;;;;;5004791;28;20026;-53
2022/01/18 08:55:34;;;;;;;74.75;24.17;;;;;;;;;;5003626;28;20038;-53
2022/01/18 08:58:00;;;;;;;83.15;25.90;;;;;;;;;;5001788;28;20066;-54
2022/01/18 09:00:26;;;;;;;75.05;21.00;;;;;;;;;;4999562;28;20029;-54
2022/01/18 09:02:52;;;;;;;60.60;18.88;;;;;;;;;;5004131;28;20037;-54
2022/01/18 09:05:21;;;;;;;95.32;23.42;;;;;;;;;;5004305;28;20037;-54
2022/01/18 09:07:47;;;;;;;67.80;19.85;;;;;;;;;;5001871;28;20478;-55
2022/01/18 09:10:13;;;;;;;90.95;18.88;;;;;;;;;;5001784;28;20061;-54
2022/01/18 09:12:39;;;;;;;61.95;20.25;;;;;;;;;;5004390;28;20509;-55
2022/01/18 09:15:07;;;;;;;60.25;19.42;;;;;;;;;;5003043;28;20018;-53
2022/01/18 09:17:36;;;;;;;63.70;16.48;;;;;;;;;;4999179;28;20056;-53
2022/01/18 09:20:06;;;;;;;72.20;18.67;;;;;;;;;;5003792;28;20091;-54
2022/01/18 09:22:35;;;;;;;79.68;19.83;;;;;;;;;;5002563;28;20116;-54
2022/01/18 09:25:03;;;;;;;75.43;22.27;;;;;;;;;;5001562;28;20172;-54
2022/01/18 09:27:29;;;;;;;122.72;31.95;;;;;;;;;;5000380;28;20088;-53
2022/01/18 09:29:54;;;;;;;103.15;28.67;;;;;;;;;;5001638;28;20034;-54
2022/01/18 09:32:21;;;;;;;106.05;26.98;;;;;;;;;;5004205;28;20100;-53
2022/01/18 09:34:46;;;;;;;116.10;26.92;;;;;;;;;;4994896;28;20382;-55
2022/01/18 09:37:12;;;;;;;112.18;27.77;;;;;;;;;;4999350;28;20548;-54
2022/01/18 09:39:39;;;;;;;104.32;28.55;;;;;;;;;;5004894;28;20406;-54
2022/01/18 09:42:05;;;;;;;91.20;26.13;;;;;;;;;;4985445;28;20458;-54
2022/01/18 09:44:30;;;;;;;83.53;26.27;;;;;;;;;;5002171;28;20061;-54
2022/01/18 09:46:56;;;;;;;93.60;27.30;;;;;;;;;;5000786;28;20044;-54
2022/01/18 09:49:24;;;;;;;103.47;29.08;;;;;;;;;;5002539;28;20878;-53
2022/01/18 09:51:50;;;;;;;84.00;26.00;;;;;;;;;;4999300;28;20100;-53
2022/01/18 09:54:16;;;;;;;97.85;27.48;;;;;;;;;;4996397;28;20175;-53
2022/01/18 09:56:42;;;;;;;110.95;31.33;;;;;;;;;;5000566;28;20029;-53
2022/01/18 09:59:08;;;;;;;91.47;29.35;;;;;;;;;;4999645;28;20034;-53
2022/01/18 10:01:34;;;;;;;77.18;28.45;;;;;;;;;;5000283;28;20048;-54
2022/01/18 10:04:18;;;;;;;98.45;27.40;;;;;;;;;;4998446;28;20113;-54
2022/01/18 10:06:46;;;;;;;95.13;28.77;;;;;;;;;;5003945;28;20034;-55
2022/01/18 10:09:14;;;;;;;97.55;30.75;;;;;;;;;;4999311;28;20501;-55
2022/01/18 10:12:12;;;;;;;128.02;39.05;;;;;;;;;;5001432;28;20038;-54
2022/01/18 10:14:40;;;;;;;102.40;32.95;;;;;;;;;;4999533;28;20029;-55
2022/01/18 10:17:10;;;;;;;122.03;38.50;;;;;;;;;;5002050;28;20030;-54
2022/01/18 10:19:48;;;;;;;103.93;34.58;;;;;;;;;;5000220;28;20443;-54
2022/01/18 10:22:20;;;;;;;92.53;30.60;;;;;;;;;;5001432;28;20030;-55
2022/01/18 10:24:46;;;;;;;115.70;31.33;;;;;;;;;;5003264;28;20037;-55
2022/01/18 10:27:13;;;;;;;90.13;28.90;;;;;;;;;;4999228;28;20113;-56
2022/01/18 10:29:44;;;;;;;95.45;31.40;;;;;;;;;;5001286;28;20152;-55
2022/01/18 10:37:29;;;;;;;87.72;30.55;;;;;;;;;;5002017;28;20257;-55
2022/01/18 10:40:13;;;;;;;126.97;33.60;;;;;;;;;;5001142;28;20026;-55
2022/01/18 10:42:52;;;;;;;98.43;31.80;;;;;;;;;;5001964;28;20041;-55
2022/01/18 10:45:30;;;;;;;114.85;32.63;;;;;;;;;;4994725;28;20049;-54
2022/01/18 10:48:12;;;;;;;105.10;32.50;;;;;;;;;;4998993;28;20180;-53
2022/01/18 10:50:41;;;;;;;88.60;30.50;;;;;;;;;;5001832;28;20069;-54
2022/01/18 10:53:18;;;;;;;97.85;32.47;;;;;;;;;;5000803;28;20472;-55
2022/01/18 10:55:45;;;;;;;77.85;30.92;;;;;;;;;;4999841;28;20056;-54
2022/01/18 10:58:13;;;;;;;107.90;31.60;;;;;;;;;;5001597;28;20132;-55
2022/01/18 11:00:39;;;;;;;97.35;33.28;;;;;;;;;;5002609;28;20030;-55
2022/01/18 11:03:06;;;;;;;107.03;35.45;;;;;;;;;;4999948;28;20013;-55
2022/01/18 11:05:35;;;;;;;97.43;35.30;;;;;;;;;;5002239;28;20029;-55
2022/01/18 11:08:05;;;;;;;104.38;33.45;;;;;;;;;;5000365;28;20029;-54
2022/01/18 11:10:41;;;;;;;105.95;35.65;;;;;;;;;;4975435;28;20790;-56
2022/01/18 11:13:11;;;;;;;105.20;35.25;;;;;;;;;;4998992;28;20034;-54
2022/01/18 11:15:45;;;;;;;115.15;35.67;;;;;;;;;;4999092;28;20413;-54
2022/01/18 11:18:17;;;;;;;142.43;43.22;;;;;;;;;;5000480;28;20049;-56
2022/01/18 11:20:47;;;;;;;;;;;;;;;;;;4998397;28;20117;-55
2022/01/18 11:23:13;;;;;;;98.47;33.70;;;;;;;;;;5002778;28;20480;-56
2022/01/18 11:25:40;;;;;;;106.38;32.53;;;;;;;;;;4998375;28;20408;-54
2022/01/18 11:28:07;;;;;;;103.03;34.15;;;;;;;;;;5001385;28;20040;-54
2022/01/18 11:30:41;;;;;;;92.00;31.88;;;;;;;;;;5000275;28;20033;-53
2022/01/18 11:33:10;;;;;;;88.35;29.42;;;;;;;;;;5000120;28;20037;-55
2022/01/18 11:36:20;;;;;;;87.22;32.30;;;;;;;;;;5001648;28;20030;-54
2022/01/18 11:38:50;;;;;;;74.07;24.63;;;;;;;;;;4979986;28;20454;-55
2022/01/18 11:41:34;;;;;;;68.68;25.10;;;;;;;;;;5002419;28;20038;-56
2022/01/18 11:44:16;;;;;;;79.90;22.92;;;;;;;;;;4999952;28;20065;-54
2022/01/18 11:46:47;;;;;;;51.55;17.75;;;;;;;;;;4998794;28;20029;-55
2022/01/18 11:49:22;;;;;;;35.38;9.68;;;;;;;;;;4996343;28;20026;-55
2022/01/18 11:52:05;;;;;;;29.73;7.70;;;;;;;;;;4996848;28;20037;-54
2022/01/18 11:57:00;;;;;;;23.35;4.80;;;;;;;;;;4999332;28;20034;-56
2022/01/18 11:59:34;;;;;;;18.88;4.30;;;;;;;;;;4995585;28;20026;-54
2022/01/18 12:02:03;;;;;;;34.55;4.68;;;;;;;;;;5001825;28;20029;-50
2022/01/18 12:04:51;;;;;;;13.48;2.92;;;;;;;;;;4999743;28;20076;-52
2022/01/18 12:07:36;;;;;;;12.23;3.58;;;;;;;;;;4999376;28;20424;-54
2022/01/18 12:10:08;;;;;;;20.35;3.90;;;;;;;;;;4996866;28;20646;-55
2022/01/18 12:12:45;;;;;;;19.85;3.55;;;;;;;;;;4982934;28;20343;-55
2022/01/18 12:15:19;;;;;;;20.98;4.40;;;;;;;;;;4982518;28;20612;-55
2022/01/18 12:17:51;;;;;;;18.67;3.45;;;;;;;;;;4998881;28;20026;-55
2022/01/18 12:20:35;;;;;;;21.83;3.33;;;;;;;;;;5004114;28;20018;-54
2022/01/18 12:23:02;;;;;;;20.20;4.72;;;;;;;;;;5003820;28;20030;-56
2022/01/18 12:25:30;;;;;;;22.70;3.78;;;;;;;;;;5004062;28;20057;-56
2022/01/18 12:28:01;;;;;;;20.60;3.38;;;;;;;;;;4987795;28;20037;-56
2022/01/18 12:33:19;;;;;;;15.35;3.78;;;;;;;;;;5002909;28;20064;-56
2022/01/18 12:35:44;;;;;;;16.05;4.22;;;;;;;;;;5000302;28;20497;-55
2022/01/18 12:38:23;;;;;;;21.85;5.60;;;;;;;;;;5002845;28;20049;-55
2022/01/18 12:40:50;;;;;;;14.82;5.68;;;;;;;;;;4985602;28;20426;-56
2022/01/18 12:46:04;;;;;;;13.25;3.50;;;;;;;;;;4999521;28;20045;-56
2022/01/18 12:48:31;;;;;;;19.85;3.17;;;;;;;;;;5003077;28;20409;-56
2022/01/18 12:50:58;;;;;;;23.30;6.05;;;;;;;;;;5002867;28;20182;-55
2022/01/18 12:53:36;;;;;;;21.30;5.90;;;;;;;;;;5002349;28;20062;-54
2022/01/18 12:56:06;;;;;;;14.23;3.35;;;;;;;;;;4995742;28;20515;-55
2022/01/18 12:58:34;;;;;;;25.73;4.93;;;;;;;;;;4980768;28;20033;-56
2022/01/18 13:01:05;;;;;;;18.90;5.60;;;;;;;;;;5001121;28;20615;-56
2022/01/18 13:03:45;;;;;;;26.10;6.22;;;;;;;;;;5000882;28;20032;-55
2022/01/18 13:06:19;;;;;;;24.33;5.28;;;;;;;;;;4997897;28;20465;-55
2022/01/18 13:08:59;;;;;;;28.90;5.75;;;;;;;;;;5004038;28;20416;-55
2022/01/18 13:11:34;;;;;;;28.25;4.90;;;;;;;;;;4999340;28;20061;-56
2022/01/18 13:14:08;;;;;;;21.55;4.97;;;;;;;;;;5000717;28;20472;-56
2022/01/18 13:27:19;;;;;;;14.20;2.30;;;;;;;;;;5003242;28;20061;-56
2022/01/18 13:29:48;;;;;;;20.70;2.97;;;;;;;;;;4999657;28;20026;-56
2022/01/18 13:32:18;;;;;;;12.38;2.65;;;;;;;;;;5006010;28;20049;-54
2022/01/18 13:34:55;;;;;;;12.88;2.65;;;;;;;;;;5002196;28;20099;-56
2022/01/18 13:37:26;;;;;;;10.07;2.30;;;;;;;;;;5002478;28;20485;-56
2022/01/18 13:39:56;;;;;;;9.38;1.98;;;;;;;;;;5000125;28;20034;-56
2022/01/18 13:42:28;;;;;;;29.95;4.00;;;;;;;;;;4998923;28;20053;-56
2022/01/18 13:45:24;;;;;;;18.13;2.58;;;;;;;;;;4999644;28;20806;-56
2022/01/18 13:47:55;;;;;;;13.05;1.80;;;;;;;;;;4998285;28;20545;-57
2022/01/18 13:50:33;;;;;;;16.38;2.28;;;;;;;;;;5000712;28;20428;-56
2022/01/18 13:53:01;;;;;;;6.25;2.22;;;;;;;;;;5001974;28;20041;-56
2022/01/18 13:55:28;;;;;;;6.50;2.20;;;;;;;;;;5001498;28;20064;-56
2022/01/18 13:57:56;;;;;;;9.63;2.20;;;;;;;;;;5002777;28;20030;-56
2022/01/18 14:00:23;;;;;;;15.65;2.00;;;;;;;;;;4986615;28;20033;-56
2022/01/18 14:02:49;;;;;;;11.70;2.17;;;;;;;;;;5001422;28;20091;-56
2022/01/18 14:05:17;;;;;;;7.50;1.80;;;;;;;;;;4997230;28;20479;-56
2022/01/18 14:07:43;;;;;;;12.00;2.30;;;;;;;;;;5001404;28;20046;-55
2022/01/18 14:10:09;;;;;;;8.52;2.17;;;;;;;;;;4999594;28;20046;-55
2022/01/18 14:12:34;;;;;;;11.23;1.85;;;;;;;;;;5005193;28;20559;-56
2022/01/18 14:15:00;;;;;;;10.23;1.60;;;;;;;;;;5004769;28;20033;-54
2022/01/18 14:17:26;;;;;;;6.82;1.85;;;;;;;;;;4994640;28;20608;-54
2022/01/18 14:20:08;;;;;;;14.70;2.97;;;;;;;;;;5005429;28;20034;-55
2022/01/18 14:22:36;;;;;;;15.52;2.13;;;;;;;;;;5001398;28;20116;-54
2022/01/18 14:25:05;;;;;;;11.10;2.83;;;;;;;;;;4978123;28;20063;-53
2022/01/18 14:27:34;;;;;;;11.60;2.72;;;;;;;;;;5002677;28;20129;-53
2022/01/18 14:30:31;;;;;;;11.88;1.98;;;;;;;;;;5003418;28;20030;-54
2022/01/18 14:32:57;;;;;;;11.73;2.38;;;;;;;;;;4997772;28;20042;-54
2022/01/18 14:35:25;;;;;;;8.40;2.08;;;;;;;;;;4999781;28;20041;-53
2022/01/18 14:38:07;;;;;;;8.60;2.10;;;;;;;;;;5000406;28;20033;-52
2022/01/18 14:40:39;;;;;;;7.82;2.00;;;;;;;;;;5001269;28;20033;-54
2022/01/18 14:43:26;;;;;;;8.55;2.10;;;;;;;;;;4998138;28;20045;-54
2022/01/18 14:46:01;;;;;;;10.43;1.83;;;;;;;;;;4993678;28;20544;-56
2022/01/18 14:48:30;;;;;;;14.07;1.92;;;;;;;;;;5001185;28;20034;-54
2022/01/18 14:50:56;;;;;;;9.48;1.83;;;;;;;;;;4997824;28;20026;-56
2022/01/18 14:53:22;;;;;;;7.10;1.90;;;;;;;;;;4997187;28;20029;-57
2022/01/18 14:55:47;;;;;;;12.18;2.20;;;;;;;;;;4996781;28;20561;-57
2022/01/18 14:58:13;;;;;;;7.35;2.00;;;;;;;;;;4997888;28;20080;-57
2022/01/18 15:00:41;;;;;;;14.93;2.28;;;;;;;;;;5004656;28;20539;-57
2022/01/18 15:03:07;;;;;;;6.47;2.10;;;;;;;;;;5005531;28;20038;-57
2022/01/18 15:05:33;;;;;;;15.50;2.08;;;;;;;;;;4998962;28;20104;-57
2022/01/18 15:08:00;;;;;;;5.50;1.95;;;;;;;;;;4997170;28;20029;-57
2022/01/18 15:10:26;;;;;;;12.48;2.17;;;;;;;;;;5000328;28;20539;-57
2022/01/18 15:12:54;;;;;;;11.18;2.45;;;;;;;;;;4999381;28;20137;-57
2022/01/18 15:15:21;;;;;;;12.63;1.95;;;;;;;;;;5000767;28;20466;-57
2022/01/18 15:17:51;;;;;;;20.67;3.20;;;;;;;;;;4997639;28;20038;-57
2022/01/18 15:20:18;;;;;;;6.20;2.10;;;;;;;;;;4998434;28;20029;-57
2022/01/18 15:22:44;;;;;;;12.48;3.53;;;;;;;;;;4998219;28;20022;-57
2022/01/18 15:25:10;;;;;;;11.13;2.50;;;;;;;;;;4997803;28;20357;-57
2022/01/18 15:27:36;;;;;;;5.90;1.88;;;;;;;;;;4981334;28;20054;-55
2022/01/18 15:30:08;;;;;;;10.68;2.20;;;;;;;;;;5000029;28;20139;-57
2022/01/18 15:32:35;;;;;;;11.35;2.00;;;;;;;;;;4999454;28;20030;-57
2022/01/18 15:35:01;;;;;;;11.38;2.85;;;;;;;;;;4981352;28;20133;-56
2022/01/18 15:37:26;;;;;;;8.95;2.33;;;;;;;;;;4999610;28;20721;-57
2022/01/18 15:39:54;;;;;;;7.97;2.30;;;;;;;;;;5001874;28;20034;-57
2022/01/18 15:42:20;;;;;;;18.67;2.22;;;;;;;;;;4996440;28;20030;-57
2022/01/18 15:44:46;;;;;;;9.98;2.38;;;;;;;;;;4996790;28;20026;-57
2022/01/18 15:47:13;;;;;;;8.48;2.42;;;;;;;;;;4999788;28;20108;-56
2022/01/18 15:49:40;;;;;;;7.25;2.35;;;;;;;;;;4997347;28;20026;-57
2022/01/18 15:52:06;;;;;;;10.90;2.55;;;;;;;;;;4998528;28;20044;-57
2022/01/18 15:54:32;;;;;;;11.63;2.58;;;;;;;;;;5003521;28;20508;-57
2022/01/18 15:56:58;;;;;;;12.15;2.67;;;;;;;;;;5002043;28;20136;-57
2022/01/18 15:59:23;;;;;;;11.30;2.22;;;;;;;;;;5004343;28;20034;-56
2022/01/18 16:01:49;;;;;;;8.60;2.65;;;;;;;;;;4986109;28;20041;-57
2022/01/18 16:04:14;;;;;;;9.00;3.70;;;;;;;;;;5003583;28;20436;-57
2022/01/18 16:06:40;;;;;;;9.23;2.75;;;;;;;;;;5006663;28;20034;-57